sensor_id;sensor_type;location;lat;lon;timestamp;temperature;humidity
7360;DHT22;3720;48.274;7.796;2023-05-19T00:01:49;13.90;99.90
7360;DHT22;3720;48.274;7.796;2023-05-19T00:04:22;13.90;99.90
7360;DHT22;3720;48.274;7.796;2023-05-19T00:06:55;13.90;99.90
7360;DHT22;3720;48.274;7.796;2023-05-19T00:09:31;13.90;99.90
7360;DHT22;3720;48.274;7.796;2023-05-19T00:12:04;13.90;99.90
7360;DHT22;3720;48.274;7.796;2023-05-19T00:14:36;13.90;99.90
7360;DHT22;3720;48.274;7.796;2023-05-19T00:17:09;13.90;99.90
7360;DHT22;3720;48.274;7.796;2023-05-19T00:19:41;13.80;99.90
7360;DHT22;3720;48.274;7.796;2023-05-19T00:22:14;13.70;99.90
7360;DHT22;3720;48.274;7.796;2023-05-19T00:24:48;13.70;99.90
7360;DHT22;3720;48.274;7.796;2023-05-19T00:27:20;13.70;99.90
7360;DHT22;3720;48.274;7.796;2023-05-19T00:29:51;13.70;99.90
7360;DHT22;3720;48.274;7.796;2023-05-19T00:32:23;13.70;99.90
7360;DHT22;3720;48.274;7.796;2023-05-19T00:34:55;13.70;99.90
7360;DHT22;3720;48.274;7.796;2023-05-19T00:37:27;13.70;99.90
7360;DHT22;3720;48.274;7.796;2023-05-19T00:40:00;13.70;99.90
7360;DHT22;3720;48.274;7.796;2023-05-19T00:42:35;13.60;99.90
7360;DHT22;3720;48.274;7.796;2023-05-19T00:45:08;13.60;99.90
7360;DHT22;3720;48.274;7.796;2023-05-19T00:47:40;13.60;99.90
7360;DHT22;3720;48.274;7.796;2023-05-19T00:50:12;13.60;99.90
7360;DHT22;3720;48.274;7.796;2023-05-19T00:52:43;13.60;99.90
7360;DHT22;3720;48.274;7.796;2023-05-19T00:55:18;13.50;99.90
7360;DHT22;3720;48.274;7.796;2023-05-19T00:57:51;13.60;99.90
7360;DHT22;3720;48.274;7.796;2023-05-19T01:00:24;13.50;99.90
7360;DHT22;3720;48.274;7.796;2023-05-19T01:02:56;13.50;99.90
7360;DHT22;3720;48.274;7.796;2023-05-19T01:05:27;13.50;99.90
7360;DHT22;3720;48.274;7.796;2023-05-19T01:08:00;13.40;99.90
7360;DHT22;3720;48.274;7.796;2023-05-19T01:10:33;13.40;99.90
7360;DHT22;3720;48.274;7.796;2023-05-19T01:13:05;13.30;99.90
7360;DHT22;3720;48.274;7.796;2023-05-19T01:15:57;13.30;99.90
7360;DHT22;3720;48.274;7.796;2023-05-19T01:18:38;13.30;99.90
7360;DHT22;3720;48.274;7.796;2023-05-19T01:21:30;13.20;99.90
7360;DHT22;3720;48.274;7.796;2023-05-19T01:24:33;13.10;99.90
7360;DHT22;3720;48.274;7.796;2023-05-19T01:27:38;13.10;99.90
7360;DHT22;3720;48.274;7.796;2023-05-19T01:30:25;13.10;99.90
7360;DHT22;3720;48.274;7.796;2023-05-19T01:33:00;12.90;99.90
7360;DHT22;3720;48.274;7.796;2023-05-19T01:35:35;12.90;99.90
7360;DHT22;3720;48.274;7.796;2023-05-19T01:38:09;12.80;99.90
7360;DHT22;3720;48.274;7.796;2023-05-19T01:40:42;12.80;99.90
7360;DHT22;3720;48.274;7.796;2023-05-19T01:43:16;12.80;99.90
7360;DHT22;3720;48.274;7.796;2023-05-19T01:45:51;12.80;99.90
7360;DHT22;3720;48.274;7.796;2023-05-19T01:48:23;12.70;99.90
7360;DHT22;3720;48.274;7.796;2023-05-19T01:50:55;12.70;99.90
7360;DHT22;3720;48.274;7.796;2023-05-19T01:53:27;12.70;99.90
7360;DHT22;3720;48.274;7.796;2023-05-19T01:55:59;12.60;99.90
7360;DHT22;3720;48.274;7.796;2023-05-19T01:58:37;12.50;99.90
7360;DHT22;3720;48.274;7.796;2023-05-19T02:01:21;12.50;99.90
7360;DHT22;3720;48.274;7.796;2023-05-19T02:04:15;12.50;99.90
7360;DHT22;3720;48.274;7.796;2023-05-19T02:06:54;12.50;99.90
7360;DHT22;3720;48.274;7.796;2023-05-19T02:09:37;12.40;99.90
7360;DHT22;3720;48.274;7.796;2023-05-19T02:12:15;12.40;99.90
7360;DHT22;3720;48.274;7.796;2023-05-19T02:14:54;12.30;99.90
7360;DHT22;3720;48.274;7.796;2023-05-19T02:17:31;12.30;99.90
7360;DHT22;3720;48.274;7.796;2023-05-19T02:20:06;12.30;99.90
7360;DHT22;3720;48.274;7.796;2023-05-19T02:22:39;12.30;99.90
7360;DHT22;3720;48.274;7.796;2023-05-19T02:25:11;12.30;99.90
7360;DHT22;3720;48.274;7.796;2023-05-19T02:27:43;12.30;99.90
7360;DHT22;3720;48.274;7.796;2023-05-19T02:30:15;12.20;99.90
7360;DHT22;3720;48.274;7.796;2023-05-19T02:32:49;12.20;99.90
7360;DHT22;3720;48.274;7.796;2023-05-19T02:35:23;12.20;99.90
7360;DHT22;3720;48.274;7.796;2023-05-19T02:37:55;12.10;99.90
7360;DHT22;3720;48.274;7.796;2023-05-19T02:40:27;12.20;99.90
7360;DHT22;3720;48.274;7.796;2023-05-19T02:42:59;12.10;99.90
7360;DHT22;3720;48.274;7.796;2023-05-19T02:45:31;12.10;99.90
7360;DHT22;3720;48.274;7.796;2023-05-19T02:48:04;12.00;99.90
7360;DHT22;3720;48.274;7.796;2023-05-19T02:50:36;12.10;99.90
7360;DHT22;3720;48.274;7.796;2023-05-19T02:53:09;12.10;99.90
7360;DHT22;3720;48.274;7.796;2023-05-19T02:55:41;12.00;99.90
7360;DHT22;3720;48.274;7.796;2023-05-19T02:58:13;11.90;99.90
7360;DHT22;3720;48.274;7.796;2023-05-19T03:00:45;11.90;99.90
7360;DHT22;3720;48.274;7.796;2023-05-19T03:03:18;11.90;99.90
7360;DHT22;3720;48.274;7.796;2023-05-19T03:05:50;11.80;99.90
7360;DHT22;3720;48.274;7.796;2023-05-19T03:08:23;11.70;99.90
7360;DHT22;3720;48.274;7.796;2023-05-19T03:10:54;11.80;99.90
7360;DHT22;3720;48.274;7.796;2023-05-19T03:13:26;11.80;99.90
7360;DHT22;3720;48.274;7.796;2023-05-19T03:15:58;11.80;99.90
7360;DHT22;3720;48.274;7.796;2023-05-19T03:18:32;11.80;99.90
7360;DHT22;3720;48.274;7.796;2023-05-19T03:21:04;11.70;99.90
7360;DHT22;3720;48.274;7.796;2023-05-19T03:23:36;11.80;99.90
7360;DHT22;3720;48.274;7.796;2023-05-19T03:26:08;11.60;99.90
7360;DHT22;3720;48.274;7.796;2023-05-19T03:28:40;11.70;99.90
7360;DHT22;3720;48.274;7.796;2023-05-19T03:31:12;11.60;99.90
7360;DHT22;3720;48.274;7.796;2023-05-19T03:33:45;11.70;99.90
7360;DHT22;3720;48.274;7.796;2023-05-19T03:36:17;11.70;99.90
7360;DHT22;3720;48.274;7.796;2023-05-19T03:38:49;11.70;99.90
7360;DHT22;3720;48.274;7.796;2023-05-19T03:41:21;11.70;99.90
7360;DHT22;3720;48.274;7.796;2023-05-19T03:43:53;11.60;99.90
7360;DHT22;3720;48.274;7.796;2023-05-19T03:46:24;11.60;99.90
7360;DHT22;3720;48.274;7.796;2023-05-19T03:48:58;11.60;99.90
7360;DHT22;3720;48.274;7.796;2023-05-19T03:51:30;11.60;99.90
7360;DHT22;3720;48.274;7.796;2023-05-19T03:54:04;11.60;99.90
7360;DHT22;3720;48.274;7.796;2023-05-19T03:56:38;11.50;99.90
7360;DHT22;3720;48.274;7.796;2023-05-19T03:59:10;11.50;99.90
7360;DHT22;3720;48.274;7.796;2023-05-19T04:01:42;11.50;99.90
7360;DHT22;3720;48.274;7.796;2023-05-19T04:04:15;11.50;99.90
7360;DHT22;3720;48.274;7.796;2023-05-19T04:06:47;11.50;99.90
7360;DHT22;3720;48.274;7.796;2023-05-19T04:09:20;11.50;99.90
7360;DHT22;3720;48.274;7.796;2023-05-19T04:11:53;11.50;99.90
7360;DHT22;3720;48.274;7.796;2023-05-19T04:14:25;11.50;99.90
7360;DHT22;3720;48.274;7.796;2023-05-19T04:16:57;11.50;99.90
7360;DHT22;3720;48.274;7.796;2023-05-19T04:19:30;11.50;99.90
7360;DHT22;3720;48.274;7.796;2023-05-19T04:22:02;11.50;99.90
7360;DHT22;3720;48.274;7.796;2023-05-19T04:24:34;11.40;99.90
7360;DHT22;3720;48.274;7.796;2023-05-19T04:27:06;11.40;99.90
7360;DHT22;3720;48.274;7.796;2023-05-19T04:29:41;11.40;99.90
7360;DHT22;3720;48.274;7.796;2023-05-19T04:32:13;11.40;99.90
7360;DHT22;3720;48.274;7.796;2023-05-19T04:34:48;11.40;99.90
7360;DHT22;3720;48.274;7.796;2023-05-19T04:37:20;11.40;99.90
7360;DHT22;3720;48.274;7.796;2023-05-19T04:39:53;11.40;99.90
7360;DHT22;3720;48.274;7.796;2023-05-19T04:42:25;11.50;99.90
7360;DHT22;3720;48.274;7.796;2023-05-19T04:45:02;11.50;99.90
7360;DHT22;3720;48.274;7.796;2023-05-19T04:47:35;11.50;99.90
7360;DHT22;3720;48.274;7.796;2023-05-19T04:50:09;11.40;99.90
7360;DHT22;3720;48.274;7.796;2023-05-19T04:52:41;11.40;99.90
7360;DHT22;3720;48.274;7.796;2023-05-19T04:55:15;11.40;99.90
7360;DHT22;3720;48.274;7.796;2023-05-19T04:57:47;11.40;99.90
7360;DHT22;3720;48.274;7.796;2023-05-19T05:00:20;11.40;99.90
7360;DHT22;3720;48.274;7.796;2023-05-19T05:02:52;11.40;99.90
7360;DHT22;3720;48.274;7.796;2023-05-19T05:05:28;11.40;99.90
7360;DHT22;3720;48.274;7.796;2023-05-19T05:08:00;11.30;99.90
7360;DHT22;3720;48.274;7.796;2023-05-19T05:10:32;11.30;99.90
7360;DHT22;3720;48.274;7.796;2023-05-19T05:13:05;11.40;99.90
7360;DHT22;3720;48.274;7.796;2023-05-19T05:15:37;11.40;99.90
7360;DHT22;3720;48.274;7.796;2023-05-19T05:18:10;11.50;99.90
7360;DHT22;3720;48.274;7.796;2023-05-19T05:20:44;11.50;99.90
7360;DHT22;3720;48.274;7.796;2023-05-19T05:23:18;11.50;99.90
7360;DHT22;3720;48.274;7.796;2023-05-19T05:25:50;11.50;99.90
7360;DHT22;3720;48.274;7.796;2023-05-19T05:28:23;11.60;99.90
7360;DHT22;3720;48.274;7.796;2023-05-19T05:30:55;11.50;99.90
7360;DHT22;3720;48.274;7.796;2023-05-19T05:33:27;11.50;99.90
7360;DHT22;3720;48.274;7.796;2023-05-19T05:36:01;11.50;99.90
7360;DHT22;3720;48.274;7.796;2023-05-19T05:38:33;11.50;99.90
7360;DHT22;3720;48.274;7.796;2023-05-19T05:41:05;11.60;99.90
7360;DHT22;3720;48.274;7.796;2023-05-19T05:43:37;11.60;99.90
7360;DHT22;3720;48.274;7.796;2023-05-19T05:46:09;11.60;99.90
7360;DHT22;3720;48.274;7.796;2023-05-19T05:48:41;11.60;99.90
7360;DHT22;3720;48.274;7.796;2023-05-19T05:51:15;11.60;99.90
7360;DHT22;3720;48.274;7.796;2023-05-19T05:53:51;11.70;99.90
7360;DHT22;3720;48.274;7.796;2023-05-19T05:56:23;11.70;99.90
7360;DHT22;3720;48.274;7.796;2023-05-19T05:58:56;11.80;99.90
7360;DHT22;3720;48.274;7.796;2023-05-19T06:01:28;11.90;99.90
7360;DHT22;3720;48.274;7.796;2023-05-19T06:04:01;12.00;99.90
7360;DHT22;3720;48.274;7.796;2023-05-19T06:06:34;11.90;99.90
7360;DHT22;3720;48.274;7.796;2023-05-19T06:09:07;11.90;99.90
7360;DHT22;3720;48.274;7.796;2023-05-19T06:11:39;12.00;99.90
7360;DHT22;3720;48.274;7.796;2023-05-19T06:14:11;12.00;99.90
7360;DHT22;3720;48.274;7.796;2023-05-19T06:16:43;12.10;99.90
7360;DHT22;3720;48.274;7.796;2023-05-19T06:19:15;12.20;99.90
7360;DHT22;3720;48.274;7.796;2023-05-19T06:21:48;12.10;99.90
7360;DHT22;3720;48.274;7.796;2023-05-19T06:24:20;12.20;99.90
7360;DHT22;3720;48.274;7.796;2023-05-19T06:26:52;12.30;99.90
7360;DHT22;3720;48.274;7.796;2023-05-19T06:29:24;12.40;99.90
7360;DHT22;3720;48.274;7.796;2023-05-19T06:31:56;12.50;99.90
7360;DHT22;3720;48.274;7.796;2023-05-19T06:34:28;12.60;99.90
7360;DHT22;3720;48.274;7.796;2023-05-19T06:37:01;12.70;99.90
7360;DHT22;3720;48.274;7.796;2023-05-19T06:39:33;12.80;99.90
7360;DHT22;3720;48.274;7.796;2023-05-19T06:42:05;12.80;99.90
7360;DHT22;3720;48.274;7.796;2023-05-19T06:44:37;12.80;99.90
7360;DHT22;3720;48.274;7.796;2023-05-19T06:47:09;12.80;99.90
7360;DHT22;3720;48.274;7.796;2023-05-19T06:49:41;12.80;99.90
7360;DHT22;3720;48.274;7.796;2023-05-19T06:52:14;12.80;99.90
7360;DHT22;3720;48.274;7.796;2023-05-19T06:54:46;12.70;99.90
7360;DHT22;3720;48.274;7.796;2023-05-19T06:57:18;12.70;99.90
7360;DHT22;3720;48.274;7.796;2023-05-19T06:59:50;12.80;99.90
7360;DHT22;3720;48.274;7.796;2023-05-19T07:02:22;12.80;99.90
7360;DHT22;3720;48.274;7.796;2023-05-19T07:04:54;12.90;99.90
7360;DHT22;3720;48.274;7.796;2023-05-19T07:07:28;13.10;99.90
7360;DHT22;3720;48.274;7.796;2023-05-19T07:10:00;13.10;99.90
7360;DHT22;3720;48.274;7.796;2023-05-19T07:12:32;13.20;99.90
7360;DHT22;3720;48.274;7.796;2023-05-19T07:15:05;13.30;99.90
7360;DHT22;3720;48.274;7.796;2023-05-19T07:17:37;13.30;99.90
7360;DHT22;3720;48.274;7.796;2023-05-19T07:20:10;13.50;99.90
7360;DHT22;3720;48.274;7.796;2023-05-19T07:22:43;13.60;99.90
7360;DHT22;3720;48.274;7.796;2023-05-19T07:25:15;13.70;99.90
7360;DHT22;3720;48.274;7.796;2023-05-19T07:27:48;13.80;99.90
7360;DHT22;3720;48.274;7.796;2023-05-19T07:30:19;13.70;99.90
7360;DHT22;3720;48.274;7.796;2023-05-19T07:32:51;13.90;99.90
7360;DHT22;3720;48.274;7.796;2023-05-19T07:35:24;14.00;99.90
7360;DHT22;3720;48.274;7.796;2023-05-19T07:37:58;14.10;99.90
7360;DHT22;3720;48.274;7.796;2023-05-19T07:40:30;14.20;99.90
7360;DHT22;3720;48.274;7.796;2023-05-19T07:43:02;14.40;99.90
7360;DHT22;3720;48.274;7.796;2023-05-19T07:45:34;14.70;99.90
7360;DHT22;3720;48.274;7.796;2023-05-19T07:48:06;14.80;99.90
7360;DHT22;3720;48.274;7.796;2023-05-19T07:50:38;15.00;99.90
7360;DHT22;3720;48.274;7.796;2023-05-19T07:53:11;15.20;99.90
7360;DHT22;3720;48.274;7.796;2023-05-19T07:55:43;15.40;99.90
7360;DHT22;3720;48.274;7.796;2023-05-19T07:58:16;15.50;99.90
7360;DHT22;3720;48.274;7.796;2023-05-19T08:00:49;15.50;99.90
7360;DHT22;3720;48.274;7.796;2023-05-19T08:03:21;15.60;99.90
7360;DHT22;3720;48.274;7.796;2023-05-19T08:05:53;15.70;99.90
7360;DHT22;3720;48.274;7.796;2023-05-19T08:08:26;15.80;99.90
7360;DHT22;3720;48.274;7.796;2023-05-19T08:11:01;15.80;99.90
7360;DHT22;3720;48.274;7.796;2023-05-19T08:13:33;15.90;99.90
7360;DHT22;3720;48.274;7.796;2023-05-19T08:16:05;15.80;99.90
7360;DHT22;3720;48.274;7.796;2023-05-19T08:18:37;15.80;99.90
7360;DHT22;3720;48.274;7.796;2023-05-19T08:21:09;15.80;99.90
7360;DHT22;3720;48.274;7.796;2023-05-19T08:23:43;15.70;99.90
7360;DHT22;3720;48.274;7.796;2023-05-19T08:26:15;15.70;99.90
7360;DHT22;3720;48.274;7.796;2023-05-19T08:28:46;15.70;99.90
7360;DHT22;3720;48.274;7.796;2023-05-19T08:31:19;15.90;99.90
7360;DHT22;3720;48.274;7.796;2023-05-19T08:33:52;15.80;99.90
7360;DHT22;3720;48.274;7.796;2023-05-19T08:36:25;15.90;99.90
7360;DHT22;3720;48.274;7.796;2023-05-19T08:38:59;16.00;99.90
7360;DHT22;3720;48.274;7.796;2023-05-19T08:41:31;16.20;99.90
7360;DHT22;3720;48.274;7.796;2023-05-19T08:44:03;16.20;99.90
7360;DHT22;3720;48.274;7.796;2023-05-19T08:46:35;16.10;99.90
7360;DHT22;3720;48.274;7.796;2023-05-19T08:49:10;16.20;99.90
7360;DHT22;3720;48.274;7.796;2023-05-19T08:51:48;16.30;99.90
7360;DHT22;3720;48.274;7.796;2023-05-19T08:54:24;16.40;99.90
7360;DHT22;3720;48.274;7.796;2023-05-19T08:57:00;16.50;99.90
7360;DHT22;3720;48.274;7.796;2023-05-19T08:59:33;16.60;99.90
7360;DHT22;3720;48.274;7.796;2023-05-19T09:02:05;16.60;99.90
7360;DHT22;3720;48.274;7.796;2023-05-19T09:04:39;16.80;99.90
7360;DHT22;3720;48.274;7.796;2023-05-19T09:07:15;16.90;99.90
7360;DHT22;3720;48.274;7.796;2023-05-19T09:09:49;16.90;99.90
7360;DHT22;3720;48.274;7.796;2023-05-19T09:12:21;17.00;99.90
7360;DHT22;3720;48.274;7.796;2023-05-19T09:14:53;17.20;99.90
7360;DHT22;3720;48.274;7.796;2023-05-19T09:17:26;17.40;99.90
7360;DHT22;3720;48.274;7.796;2023-05-19T09:20:00;17.50;99.90
7360;DHT22;3720;48.274;7.796;2023-05-19T09:22:33;17.50;99.90
7360;DHT22;3720;48.274;7.796;2023-05-19T09:25:18;17.50;99.90
7360;DHT22;3720;48.274;7.796;2023-05-19T09:27:53;17.70;99.90
7360;DHT22;3720;48.274;7.796;2023-05-19T09:30:26;17.70;99.90
7360;DHT22;3720;48.274;7.796;2023-05-19T09:32:57;17.70;99.90
7360;DHT22;3720;48.274;7.796;2023-05-19T09:35:30;17.70;99.90
7360;DHT22;3720;48.274;7.796;2023-05-19T09:38:02;17.90;99.90
7360;DHT22;3720;48.274;7.796;2023-05-19T09:40:35;17.90;99.90
7360;DHT22;3720;48.274;7.796;2023-05-19T09:43:07;17.90;99.90
7360;DHT22;3720;48.274;7.796;2023-05-19T09:45:39;17.90;99.90
7360;DHT22;3720;48.274;7.796;2023-05-19T09:48:13;17.90;99.90
7360;DHT22;3720;48.274;7.796;2023-05-19T09:50:45;17.90;99.90
7360;DHT22;3720;48.274;7.796;2023-05-19T09:53:21;17.90;99.90
7360;DHT22;3720;48.274;7.796;2023-05-19T09:55:56;17.90;99.90
7360;DHT22;3720;48.274;7.796;2023-05-19T09:58:30;17.90;99.90
7360;DHT22;3720;48.274;7.796;2023-05-19T10:01:04;18.00;99.90
7360;DHT22;3720;48.274;7.796;2023-05-19T10:03:38;18.00;99.90
7360;DHT22;3720;48.274;7.796;2023-05-19T10:06:10;18.00;99.90
7360;DHT22;3720;48.274;7.796;2023-05-19T10:08:42;18.00;99.90
7360;DHT22;3720;48.274;7.796;2023-05-19T10:11:16;17.90;99.90
7360;DHT22;3720;48.274;7.796;2023-05-19T10:13:50;17.90;99.90
7360;DHT22;3720;48.274;7.796;2023-05-19T10:16:23;17.90;99.90
7360;DHT22;3720;48.274;7.796;2023-05-19T10:18:58;17.90;99.90
7360;DHT22;3720;48.274;7.796;2023-05-19T10:21:31;17.90;99.90
7360;DHT22;3720;48.274;7.796;2023-05-19T10:24:03;17.90;99.90
7360;DHT22;3720;48.274;7.796;2023-05-19T10:26:37;18.10;99.90
7360;DHT22;3720;48.274;7.796;2023-05-19T10:29:11;18.20;99.90
7360;DHT22;3720;48.274;7.796;2023-05-19T10:31:46;18.20;99.90
7360;DHT22;3720;48.274;7.796;2023-05-19T10:34:33;18.30;99.90
7360;DHT22;3720;48.274;7.796;2023-05-19T10:37:15;18.30;99.90
7360;DHT22;3720;48.274;7.796;2023-05-19T10:39:50;18.50;99.90
7360;DHT22;3720;48.274;7.796;2023-05-19T10:42:37;18.60;99.90
7360;DHT22;3720;48.274;7.796;2023-05-19T10:45:14;18.70;99.90
7360;DHT22;3720;48.274;7.796;2023-05-19T10:47:49;18.80;99.90
7360;DHT22;3720;48.274;7.796;2023-05-19T10:50:21;18.90;99.90
7360;DHT22;3720;48.274;7.796;2023-05-19T10:52:55;18.90;99.90
7360;DHT22;3720;48.274;7.796;2023-05-19T10:55:46;18.90;99.90
7360;DHT22;3720;48.274;7.796;2023-05-19T10:58:40;18.90;99.90
7360;DHT22;3720;48.274;7.796;2023-05-19T11:01:20;18.90;99.90
7360;DHT22;3720;48.274;7.796;2023-05-19T11:03:54;18.90;99.90
7360;DHT22;3720;48.274;7.796;2023-05-19T11:06:28;18.80;99.90
7360;DHT22;3720;48.274;7.796;2023-05-19T11:09:08;18.80;99.90
7360;DHT22;3720;48.274;7.796;2023-05-19T11:11:46;18.90;99.90
7360;DHT22;3720;48.274;7.796;2023-05-19T11:14:21;18.90;99.90
7360;DHT22;3720;48.274;7.796;2023-05-19T11:16:56;18.90;99.90
7360;DHT22;3720;48.274;7.796;2023-05-19T11:19:29;19.00;99.90
7360;DHT22;3720;48.274;7.796;2023-05-19T11:22:08;19.00;99.90
7360;DHT22;3720;48.274;7.796;2023-05-19T11:24:43;19.10;99.90
7360;DHT22;3720;48.274;7.796;2023-05-19T11:27:20;19.10;99.90
7360;DHT22;3720;48.274;7.796;2023-05-19T11:29:55;19.20;99.90
7360;DHT22;3720;48.274;7.796;2023-05-19T11:32:29;19.30;99.90
7360;DHT22;3720;48.274;7.796;2023-05-19T11:35:03;19.30;99.90
7360;DHT22;3720;48.274;7.796;2023-05-19T11:37:35;19.30;99.90
7360;DHT22;3720;48.274;7.796;2023-05-19T11:40:10;19.40;99.90
7360;DHT22;3720;48.274;7.796;2023-05-19T11:42:44;19.50;99.90
7360;DHT22;3720;48.274;7.796;2023-05-19T11:45:23;19.50;99.90
7360;DHT22;3720;48.274;7.796;2023-05-19T11:47:57;19.60;99.90
7360;DHT22;3720;48.274;7.796;2023-05-19T11:50:30;19.70;99.90
7360;DHT22;3720;48.274;7.796;2023-05-19T11:53:02;19.90;99.90
7360;DHT22;3720;48.274;7.796;2023-05-19T11:55:34;20.00;99.90
7360;DHT22;3720;48.274;7.796;2023-05-19T11:58:13;20.00;99.90
7360;DHT22;3720;48.274;7.796;2023-05-19T12:00:46;20.10;99.90
7360;DHT22;3720;48.274;7.796;2023-05-19T12:03:20;20.10;99.90
7360;DHT22;3720;48.274;7.796;2023-05-19T12:05:55;20.10;99.90
7360;DHT22;3720;48.274;7.796;2023-05-19T12:08:28;20.00;99.90
7360;DHT22;3720;48.274;7.796;2023-05-19T12:11:00;20.00;99.90
7360;DHT22;3720;48.274;7.796;2023-05-19T12:13:33;20.00;99.90
7360;DHT22;3720;48.274;7.796;2023-05-19T12:16:07;20.00;99.90
7360;DHT22;3720;48.274;7.796;2023-05-19T12:18:39;20.00;99.90
7360;DHT22;3720;48.274;7.796;2023-05-19T12:21:11;20.00;99.90
7360;DHT22;3720;48.274;7.796;2023-05-19T12:23:43;20.00;99.90
7360;DHT22;3720;48.274;7.796;2023-05-19T12:26:15;20.00;99.90
7360;DHT22;3720;48.274;7.796;2023-05-19T12:28:49;20.00;99.90
7360;DHT22;3720;48.274;7.796;2023-05-19T12:31:23;20.00;99.90
7360;DHT22;3720;48.274;7.796;2023-05-19T12:33:56;20.10;99.90
7360;DHT22;3720;48.274;7.796;2023-05-19T12:36:31;20.20;99.90
7360;DHT22;3720;48.274;7.796;2023-05-19T12:39:03;20.20;99.90
7360;DHT22;3720;48.274;7.796;2023-05-19T12:41:36;20.30;99.90
7360;DHT22;3720;48.274;7.796;2023-05-19T12:44:14;20.40;99.90
7360;DHT22;3720;48.274;7.796;2023-05-19T12:46:51;20.50;99.90
7360;DHT22;3720;48.274;7.796;2023-05-19T12:49:23;20.50;99.90
7360;DHT22;3720;48.274;7.796;2023-05-19T12:51:55;20.50;99.90
7360;DHT22;3720;48.274;7.796;2023-05-19T12:54:27;20.40;99.90
7360;DHT22;3720;48.274;7.796;2023-05-19T12:57:04;20.40;99.90
7360;DHT22;3720;48.274;7.796;2023-05-19T12:59:36;20.30;99.90
7360;DHT22;3720;48.274;7.796;2023-05-19T13:02:10;20.30;99.90
7360;DHT22;3720;48.274;7.796;2023-05-19T13:04:42;20.40;99.90
7360;DHT22;3720;48.274;7.796;2023-05-19T13:07:14;20.40;99.90
7360;DHT22;3720;48.274;7.796;2023-05-19T13:09:46;20.40;99.90
7360;DHT22;3720;48.274;7.796;2023-05-19T13:12:17;20.50;99.90
7360;DHT22;3720;48.274;7.796;2023-05-19T13:14:49;20.50;99.90
7360;DHT22;3720;48.274;7.796;2023-05-19T13:17:23;20.60;99.90
7360;DHT22;3720;48.274;7.796;2023-05-19T13:19:55;20.60;99.90
7360;DHT22;3720;48.274;7.796;2023-05-19T13:22:26;20.60;99.90
7360;DHT22;3720;48.274;7.796;2023-05-19T13:24:59;20.60;99.90
7360;DHT22;3720;48.274;7.796;2023-05-19T13:27:31;20.60;99.90
7360;DHT22;3720;48.274;7.796;2023-05-19T13:30:04;20.60;99.90
7360;DHT22;3720;48.274;7.796;2023-05-19T13:32:38;20.60;99.90
7360;DHT22;3720;48.274;7.796;2023-05-19T13:35:11;20.50;99.90
7360;DHT22;3720;48.274;7.796;2023-05-19T13:37:44;20.50;99.90
7360;DHT22;3720;48.274;7.796;2023-05-19T13:40:15;20.50;99.90
7360;DHT22;3720;48.274;7.796;2023-05-19T13:42:48;20.40;99.90
7360;DHT22;3720;48.274;7.796;2023-05-19T13:45:20;20.40;99.90
7360;DHT22;3720;48.274;7.796;2023-05-19T13:47:54;20.40;99.90
7360;DHT22;3720;48.274;7.796;2023-05-19T13:50:25;20.40;99.90
7360;DHT22;3720;48.274;7.796;2023-05-19T13:52:57;20.40;99.90
7360;DHT22;3720;48.274;7.796;2023-05-19T13:55:29;20.50;99.90
7360;DHT22;3720;48.274;7.796;2023-05-19T13:58:01;20.70;99.90
7360;DHT22;3720;48.274;7.796;2023-05-19T14:00:33;20.80;99.90
7360;DHT22;3720;48.274;7.796;2023-05-19T14:03:07;20.90;99.90
7360;DHT22;3720;48.274;7.796;2023-05-19T14:05:40;20.90;99.90
7360;DHT22;3720;48.274;7.796;2023-05-19T14:08:12;20.90;99.90
7360;DHT22;3720;48.274;7.796;2023-05-19T14:10:45;20.90;99.90
7360;DHT22;3720;48.274;7.796;2023-05-19T14:13:17;21.00;99.90
7360;DHT22;3720;48.274;7.796;2023-05-19T14:15:50;21.00;99.90
7360;DHT22;3720;48.274;7.796;2023-05-19T14:18:24;20.90;99.90
7360;DHT22;3720;48.274;7.796;2023-05-19T14:20:56;20.80;99.90
7360;DHT22;3720;48.274;7.796;2023-05-19T14:23:29;20.80;99.90
7360;DHT22;3720;48.274;7.796;2023-05-19T14:26:01;20.80;99.90
7360;DHT22;3720;48.274;7.796;2023-05-19T14:28:33;20.90;99.90
7360;DHT22;3720;48.274;7.796;2023-05-19T14:31:05;20.80;99.90
7360;DHT22;3720;48.274;7.796;2023-05-19T14:33:42;20.80;99.90
7360;DHT22;3720;48.274;7.796;2023-05-19T14:36:15;20.70;99.90
7360;DHT22;3720;48.274;7.796;2023-05-19T14:38:46;20.70;99.90
7360;DHT22;3720;48.274;7.796;2023-05-19T14:41:19;20.70;99.90
7360;DHT22;3720;48.274;7.796;2023-05-19T14:43:51;20.70;99.90
7360;DHT22;3720;48.274;7.796;2023-05-19T14:46:24;20.60;99.90
7360;DHT22;3720;48.274;7.796;2023-05-19T14:48:58;20.70;99.90
7360;DHT22;3720;48.274;7.796;2023-05-19T14:51:30;20.70;99.90
7360;DHT22;3720;48.274;7.796;2023-05-19T14:54:02;20.70;99.90
7360;DHT22;3720;48.274;7.796;2023-05-19T14:56:34;20.70;99.90
7360;DHT22;3720;48.274;7.796;2023-05-19T14:59:06;20.70;99.90
7360;DHT22;3720;48.274;7.796;2023-05-19T15:01:38;20.60;99.90
7360;DHT22;3720;48.274;7.796;2023-05-19T15:04:12;20.60;99.90
7360;DHT22;3720;48.274;7.796;2023-05-19T15:06:45;20.60;99.90
7360;DHT22;3720;48.274;7.796;2023-05-19T15:09:17;20.50;99.90
7360;DHT22;3720;48.274;7.796;2023-05-19T15:11:49;20.50;99.90
7360;DHT22;3720;48.274;7.796;2023-05-19T15:14:21;20.50;99.90
7360;DHT22;3720;48.274;7.796;2023-05-19T15:16:53;20.50;99.90
7360;DHT22;3720;48.274;7.796;2023-05-19T15:19:27;20.40;99.90
7360;DHT22;3720;48.274;7.796;2023-05-19T15:22:00;20.20;99.90
7360;DHT22;3720;48.274;7.796;2023-05-19T15:24:32;20.20;99.90
7360;DHT22;3720;48.274;7.796;2023-05-19T15:27:05;20.10;99.90
7360;DHT22;3720;48.274;7.796;2023-05-19T15:29:37;20.10;99.90
7360;DHT22;3720;48.274;7.796;2023-05-19T15:32:09;19.90;99.90
7360;DHT22;3720;48.274;7.796;2023-05-19T15:34:44;20.00;99.90
7360;DHT22;3720;48.274;7.796;2023-05-19T15:37:16;20.00;99.90
7360;DHT22;3720;48.274;7.796;2023-05-19T15:39:48;19.80;99.90
7360;DHT22;3720;48.274;7.796;2023-05-19T15:42:20;19.80;99.90
7360;DHT22;3720;48.274;7.796;2023-05-19T15:44:52;19.80;99.90
7360;DHT22;3720;48.274;7.796;2023-05-19T15:47:24;19.80;99.90
7360;DHT22;3720;48.274;7.796;2023-05-19T15:49:58;19.80;99.90
7360;DHT22;3720;48.274;7.796;2023-05-19T15:52:30;19.80;99.90
7360;DHT22;3720;48.274;7.796;2023-05-19T15:55:02;19.80;99.90
7360;DHT22;3720;48.274;7.796;2023-05-19T15:57:34;19.70;99.90
7360;DHT22;3720;48.274;7.796;2023-05-19T16:00:07;19.60;99.90
7360;DHT22;3720;48.274;7.796;2023-05-19T16:02:40;19.60;99.90
7360;DHT22;3720;48.274;7.796;2023-05-19T16:05:13;19.50;99.90
7360;DHT22;3720;48.274;7.796;2023-05-19T16:07:46;19.40;99.90
7360;DHT22;3720;48.274;7.796;2023-05-19T16:10:18;19.40;99.90
7360;DHT22;3720;48.274;7.796;2023-05-19T16:12:50;19.30;99.90
7360;DHT22;3720;48.274;7.796;2023-05-19T16:15:21;19.30;99.90
7360;DHT22;3720;48.274;7.796;2023-05-19T16:17:53;19.20;99.90
7360;DHT22;3720;48.274;7.796;2023-05-19T16:20:27;19.10;99.90
7360;DHT22;3720;48.274;7.796;2023-05-19T16:22:59;19.00;99.90
7360;DHT22;3720;48.274;7.796;2023-05-19T16:25:31;18.90;99.90
7360;DHT22;3720;48.274;7.796;2023-05-19T16:28:04;18.80;99.90
7360;DHT22;3720;48.274;7.796;2023-05-19T16:30:36;18.80;99.90
7360;DHT22;3720;48.274;7.796;2023-05-19T16:33:08;18.70;99.90
7360;DHT22;3720;48.274;7.796;2023-05-19T16:35:42;18.80;99.90
7360;DHT22;3720;48.274;7.796;2023-05-19T16:38:14;18.70;99.90
7360;DHT22;3720;48.274;7.796;2023-05-19T16:40:46;18.70;99.90
7360;DHT22;3720;48.274;7.796;2023-05-19T16:43:18;18.70;99.90